Air Navigation Services of Czech Republic
Airport: LKTB Updated:  18.07.2019 17:30:27  UTC
 METAR LKTB 18.07. 17:30 ...
METAR LKTB 181730Z VRB02KT CAVOK 25/12 Q1012 NOSIG RMK REG QNH 1011=
 TAF LKTB 18.07. 17:00 ...
TAF LKTB 181700Z 1818/2000 16004KT CAVOK      BECMG 1818/1820 VRB02KT      TEMPO 1911/1918 SHRA SCT050TCU      BECMG 1912/1914 21008KT      PROB30 TEMPO 1913/1917 4000 TSRA SCT040CB      BECMG 1917/1919 36004KT=